Hughsonville, NY (12537)

5:14 PM EST on January 18, 2017 (GMT -0500)
Dr. Reggie | | Change Station

Elev 262 ft 41.58 °N, 73.89 °W | Updated 19 seconds ago

Overcast
Overcast
38.1 °F
Feels Like 38 °F
N
0.0
Wind Variable Wind from NW

Today
High -- | Low -- °F
--% Chance of Precip.
Yesterday
High -- | Low -- °F
Precip. -- in
Pressure 30.00 in
Visibility 10.0 miles
Clouds Overcast 1200 ft
Windchill 38 °F
Dew Point 36 °F
Humidity 93%
Rainfall 0.13 in
Snow Depth Not available.
7:18 AM 4:54 PM
Waning Gibbous, 60% visible
METAR KPOU 182153Z 00000KT 10SM OVC012 03/02 A3000 RMK AO2 SLP157 T00330017
Pressure 30.00 in
Visibility 10.0 miles
Clouds Overcast 1200 ft
Windchill 38 °F
Dew Point 36 °F
Humidity 93%
Rainfall 0.13 in
Snow Depth Not available.
7:18 AM 4:54 PM
Waning Gibbous, 60% visible
METAR KPOU 182153Z 00000KT 10SM OVC012 03/02 A3000 RMK AO2 SLP157 T00330017

Get Your Daily Forecast Email!

Thanks for signing up!

Be on the lookout for a verification email in your inbox.

You'll start receiving the daily forecast at 8 AM.

×

10-Day Weather Forecast

Almanac

Astronomy

Jan. 18, 2017 Rise Set
Actual Time
Civil Twilight
Nautical Twilight
Astronomical Twilight
Moon
Length of Visible Light
Length of Day
Tomorrow will be .
, % of the Moon is Illuminated

Today's Extremes

State Highs State Lows

Community

WunderPhotos

Upload Photos

1,962,540 photos uploaded!

WunderBlog® & News

Nearby

Air Quality

  Air Quality AQ Index Pollutant
Not available.

Snow Depth

Station Depth Elevation

Earthquake Activity

City Distance Mag. Time & Date
Minimum magnitude displayed is 2.5.

Coastal Water Temperatures

Place Temperature

Stations

Nearby Weather Stations

Station Location Temp. Windchill Dew Point Humidity Wind Precip. Elev Updated Type
                   

Watches & Warnings

There are currently no watches in effect.